Climatologie pour Saint-Brevin les Pins
Jour • Résumé pour janvier 5, 2018 Système :  Métrique    Anglais   Mixte
« - 1 jour
+ 1 jour »
Jour Semaine Mois Année Personnalisé
  Maximum : Minimum : Moyenne :
Température sous abri : 11.6 °C 8.3 °C 10 °C
Point de rosée : 11.2 °C 6.4 °C 8.8 °C
Humidité : 97% 83% 92%
Vitesse du vent : 20.9km/h 0.0km/h 7.9km/h
Rafale : 32.2km/h - -
Direction - - WSW
Pression : 1005.0 hPa 1000.6 hPa -
Précipitations : 2.5 mm    
Historical Graphs
 
 
Tableau de données pour janvier 5, 2018
Heure Tempé Pt rosée Pression Vent Vitesse Rafale Humidité Taux pluie (/hr) Soleil
00:00 11.3 °C 10.8 °C 1005.0 hPa West 16.1 km/h 22.5 km/h 97% 0.0 mm 0 W/m2
00:05 11.3 °C 10.8 °C 1005.0 hPa WSW 6.4 km/h 22.5 km/h 97% 0.0 mm 0 W/m2
00:15 11.3 °C 10.9 °C 1005.0 hPa WSW 12.9 km/h 17.7 km/h 97% 0.0 mm 0 W/m2
00:20 11.3 °C 10.9 °C 1005.0 hPa WSW 3.2 km/h 19.3 km/h 97% 0.0 mm 0 W/m2
00:25 11.4 °C 10.9 °C 1005.0 hPa SSW 11.3 km/h 24.1 km/h 97% 0.0 mm 0 W/m2
00:30 11.4 °C 10.9 °C 1004.6 hPa SW 12.9 km/h 24.1 km/h 97% 0.0 mm 0 W/m2
00:35 11.4 °C 10.9 °C 1004.6 hPa West 14.5 km/h 25.7 km/h 97% 0.0 mm 0 W/m2
00:50 11.5 °C 11.0 °C 1004.3 hPa WSW 9.7 km/h 24.1 km/h 97% 0.0 mm 0 W/m2
00:55 11.5 °C 11.0 °C 1004.3 hPa West 16.1 km/h 24.1 km/h 97% 0.0 mm 0 W/m2
01:10 11.5 °C 11.0 °C 1003.9 hPa WSW 16.1 km/h 22.5 km/h 97% 0.0 mm 0 W/m2
01:15 11.6 °C 11.1 °C 1003.9 hPa WSW 4.8 km/h 20.9 km/h 97% 0.0 mm 0 W/m2
01:25 11.6 °C 11.1 °C 1003.9 hPa SW 20.9 km/h 20.9 km/h 97% 0.0 mm 0 W/m2
01:35 11.6 °C 11.2 °C 1003.9 hPa West 9.7 km/h 25.7 km/h 97% 0.5 mm 0 W/m2
01:40 11.6 °C 11.1 °C 1004.3 hPa NW 16.1 km/h 25.7 km/h 97% 0.5 mm 0 W/m2
01:45 11.2 °C 10.6 °C 1003.9 hPa NW 12.9 km/h 25.7 km/h 96% 0.8 mm 0 W/m2
01:55 10.7 °C 10.1 °C 1003.9 hPa WNW 11.3 km/h 19.3 km/h 96% 0.8 mm 0 W/m2
02:00 10.6 °C 9.9 °C 1003.9 hPa WNW 9.7 km/h 19.3 km/h 96% 0.8 mm 0 W/m2
02:05 10.4 °C 9.8 °C 1003.9 hPa NW 16.1 km/h 20.9 km/h 96% 0.8 mm 0 W/m2
02:10 10.3 °C 9.7 °C 1003.9 hPa WNW 6.4 km/h 20.9 km/h 96% 0.8 mm 0 W/m2
02:15 10.2 °C 9.6 °C 1003.9 hPa WNW 11.3 km/h 19.3 km/h 96% 0.8 mm 0 W/m2
02:20 10.1 °C 9.4 °C 1003.9 hPa WSW 9.7 km/h 19.3 km/h 96% 0.8 mm 0 W/m2
02:25 10.0 °C 9.4 °C 1003.6 hPa West 6.4 km/h 19.3 km/h 96% 0.8 mm 0 W/m2
02:35 9.9 °C 9.3 °C 1003.6 hPa WSW 6.4 km/h 19.3 km/h 96% 0.5 mm 0 W/m2
02:50 9.9 °C 9.3 °C 1003.3 hPa WSW 3.2 km/h 12.9 km/h 96% 0.5 mm 0 W/m2
02:55 9.8 °C 9.2 °C 1003.3 hPa WSW 3.2 km/h 9.7 km/h 96% 0.5 mm 0 W/m2
03:00 9.9 °C 9.3 °C 1003.3 hPa WNW 1.6 km/h 9.7 km/h 96% 0.5 mm 0 W/m2
03:05 9.9 °C 9.3 °C 1002.9 hPa Calm   11.3 km/h 96% 0.5 mm 0 W/m2
03:15 9.9 °C 9.3 °C 1002.6 hPa WSW 4.8 km/h 8.0 km/h 96% 0.5 mm 0 W/m2
03:20 9.9 °C 9.3 °C 1002.6 hPa WSW 4.8 km/h 8.0 km/h 96% 0.5 mm 0 W/m2
03:30 9.9 °C 9.3 °C 1002.3 hPa Calm   4.8 km/h 96% 0.8 mm 0 W/m2
03:40 9.9 °C 9.5 °C 1002.3 hPa SW 4.8 km/h 11.3 km/h 97% 0.5 mm 0 W/m2
03:50 10.0 °C 9.5 °C 1002.3 hPa SW 1.6 km/h 9.7 km/h 97% 0.3 mm 0 W/m2
03:55 10.0 °C 9.5 °C 1001.9 hPa WSW 4.8 km/h 11.3 km/h 97% 0.3 mm 0 W/m2
04:05 10.0 °C 9.5 °C 1002.3 hPa WSW 4.8 km/h 12.9 km/h 97% 0.3 mm 0 W/m2
04:10 10.0 °C 9.5 °C 1002.3 hPa SW 4.8 km/h 11.3 km/h 97% 0.3 mm 0 W/m2
04:20 10.0 °C 9.5 °C 1002.3 hPa WSW 11.3 km/h 16.1 km/h 97% 0.3 mm 0 W/m2
04:25 9.9 °C 9.5 °C 1002.3 hPa WSW 8.0 km/h 19.3 km/h 97% 0.3 mm 0 W/m2
04:35 9.9 °C 9.5 °C 1001.9 hPa WSW 8.0 km/h 16.1 km/h 97% 0.0 mm 0 W/m2
04:40 9.9 °C 9.4 °C 1001.9 hPa WSW 8.0 km/h 14.5 km/h 97% 0.0 mm 0 W/m2
04:45 9.9 °C 9.4 °C 1001.9 hPa WSW 8.0 km/h 14.5 km/h 97% 0.0 mm 0 W/m2
04:50 9.9 °C 9.4 °C 1001.6 hPa WSW 4.8 km/h 14.5 km/h 97% 0.0 mm 0 W/m2
04:55 9.9 °C 9.4 °C 1001.6 hPa WSW 8.0 km/h 14.5 km/h 97% 0.0 mm 0 W/m2
05:00 9.9 °C 9.4 °C 1001.6 hPa SW 8.0 km/h 14.5 km/h 97% 0.0 mm 0 W/m2
05:05 9.8 °C 9.4 °C 1001.6 hPa West 4.8 km/h 16.1 km/h 97% 0.0 mm 0 W/m2
05:15 9.8 °C 9.4 °C 1001.2 hPa WSW 9.7 km/h 16.1 km/h 97% 0.0 mm 0 W/m2
05:20 9.8 °C 9.4 °C 1001.6 hPa WSW 4.8 km/h 19.3 km/h 97% 0.0 mm 0 W/m2
05:30 9.9 °C 9.4 °C 1001.6 hPa West 4.8 km/h 20.9 km/h 97% 0.0 mm 0 W/m2
05:40 9.9 °C 9.5 °C 1001.6 hPa WSW 11.3 km/h 19.3 km/h 97% 0.0 mm 0 W/m2
05:45 10.0 °C 9.5 °C 1001.6 hPa WSW 14.5 km/h 19.3 km/h 97% 0.0 mm 0 W/m2
05:50 9.9 °C 9.5 °C 1001.6 hPa West 6.4 km/h 17.7 km/h 97% 0.0 mm 0 W/m2
05:55 10.0 °C 9.5 °C 1001.6 hPa SW 9.7 km/h 16.1 km/h 97% 0.0 mm 0 W/m2
06:00 10.0 °C 9.5 °C 1001.6 hPa West 6.4 km/h 17.7 km/h 97% 0.0 mm 0 W/m2
06:05 10.1 °C 9.6 °C 1001.6 hPa SSW 4.8 km/h 17.7 km/h 97% 0.0 mm 0 W/m2
06:10 10.1 °C 9.6 °C 1001.6 hPa SW 8.0 km/h 14.5 km/h 97% 0.0 mm 0 W/m2
06:15 10.1 °C 9.7 °C 1001.6 hPa WSW 8.0 km/h 19.3 km/h 97% 0.0 mm 0 W/m2
06:20 10.2 °C 9.7 °C 1001.6 hPa WSW 6.4 km/h 19.3 km/h 97% 0.0 mm 0 W/m2
06:35 10.2 °C 9.7 °C 1001.6 hPa WSW 16.1 km/h 17.7 km/h 97% 0.0 mm 0 W/m2
06:40 10.2 °C 9.7 °C 1001.6 hPa WSW 8.0 km/h 19.3 km/h 97% 0.0 mm 0 W/m2
06:45 10.2 °C 9.8 °C 1001.2 hPa SW 14.5 km/h 20.9 km/h 97% 0.0 mm 0 W/m2
06:50 10.2 °C 9.8 °C 1001.2 hPa WSW 11.3 km/h 20.9 km/h 97% 0.0 mm 0 W/m2
07:00 10.2 °C 9.8 °C 1001.6 hPa WSW 3.2 km/h 20.9 km/h 97% 0.0 mm 0 W/m2
07:05 10.3 °C 9.8 °C 1001.2 hPa West 8.0 km/h 20.9 km/h 97% 0.0 mm 0 W/m2
07:15 10.3 °C 9.8 °C 1001.2 hPa West 3.2 km/h 17.7 km/h 97% 0.0 mm 0 W/m2
07:20 10.3 °C 9.9 °C 1001.2 hPa WSW 8.0 km/h 19.3 km/h 97% 0.0 mm 0 W/m2
07:25 10.3 °C 9.9 °C 1001.2 hPa WSW 6.4 km/h 19.3 km/h 97% 0.0 mm 0 W/m2
07:35 10.3 °C 9.9 °C 1001.2 hPa SW 9.7 km/h 17.7 km/h 97% 0.0 mm 0 W/m2
07:40 10.3 °C 9.9 °C 1001.2 hPa SW 1.6 km/h 19.3 km/h 97% 0.0 mm 0 W/m2
07:45 10.3 °C 9.9 °C 1001.2 hPa WNW 4.8 km/h 19.3 km/h 97% 0.0 mm 0 W/m2
07:55 10.3 °C 9.9 °C 1001.2 hPa West 16.1 km/h 24.1 km/h 97% 0.0 mm 0 W/m2
08:00 10.3 °C 9.9 °C 1001.2 hPa WSW 11.3 km/h 22.5 km/h 97% 0.0 mm 0 W/m2
08:05 10.4 °C 9.9 °C 1000.9 hPa West 12.9 km/h 22.5 km/h 97% 0.0 mm 0 W/m2
08:10 10.4 °C 9.9 °C 1000.9 hPa WSW 9.7 km/h 24.1 km/h 97% 0.0 mm 0 W/m2
08:20 10.3 °C 9.9 °C 1000.9 hPa WSW 8.0 km/h 17.7 km/h 97% 0.0 mm 0 W/m2
08:30 10.2 °C 9.8 °C 1000.9 hPa WSW 4.8 km/h 24.1 km/h 97% 0.0 mm 0 W/m2
08:40 10.2 °C 9.7 °C 1001.2 hPa NW 4.8 km/h 16.1 km/h 97% 0.0 mm 0 W/m2
08:45 10.1 °C 9.6 °C 1001.2 hPa West 1.6 km/h 17.7 km/h 97% 0.0 mm 0 W/m2
08:55 9.9 °C 9.5 °C 1001.2 hPa WSW 8.0 km/h 17.7 km/h 97% 0.0 mm 0 W/m2
09:00 9.9 °C 9.5 °C 1000.9 hPa SW 8.0 km/h 17.7 km/h 97% 0.0 mm 0 W/m2
09:05 9.9 °C 9.5 °C 1000.9 hPa WSW 4.8 km/h 17.7 km/h 97% 0.0 mm 0 W/m2
09:15 10.0 °C 9.5 °C 1001.2 hPa WSW 11.3 km/h 17.7 km/h 97% 0.0 mm 5 W/m2
09:40 10.3 °C 9.8 °C 1001.6 hPa WSW 8.0 km/h 22.5 km/h 97% 0.0 mm 16 W/m2
09:50 10.3 °C 9.9 °C 1001.2 hPa WSW 4.8 km/h 20.9 km/h 97% 0.0 mm 19 W/m2
09:55 10.3 °C 9.9 °C 1001.2 hPa WSW 16.1 km/h 19.3 km/h 97% 0.0 mm 28 W/m2
10:05 10.1 °C 9.5 °C 1001.2 hPa West 8.0 km/h 29.0 km/h 96% 0.0 mm 42 W/m2
10:10 10.0 °C 9.4 °C 1001.2 hPa West 17.7 km/h 25.7 km/h 96% 0.0 mm 54 W/m2
10:20 9.8 °C 9.2 °C 1001.6 hPa WSW 14.5 km/h 25.7 km/h 96% 0.0 mm 51 W/m2
10:25 9.8 °C 9.2 °C 1001.2 hPa West 9.7 km/h 20.9 km/h 96% 0.0 mm 60 W/m2
10:30 10.0 °C 9.2 °C 1001.6 hPa SW 16.1 km/h 20.9 km/h 95% 0.0 mm 63 W/m2
10:35 10.2 °C 9.4 °C 1001.6 hPa SW 9.7 km/h 20.9 km/h 95% 0.0 mm 77 W/m2
10:40 10.3 °C 9.5 °C 1001.6 hPa WSW 17.7 km/h 29.0 km/h 95% 0.0 mm 88 W/m2
10:45 10.3 °C 9.6 °C 1001.6 hPa WSW 11.3 km/h 29.0 km/h 95% 0.0 mm 93 W/m2
10:55 10.4 °C 9.7 °C 1001.6 hPa West 12.9 km/h 27.4 km/h 95% 0.0 mm 91 W/m2
11:05 10.7 °C 9.6 °C 1001.6 hPa WNW 6.4 km/h 25.7 km/h 93% 0.0 mm 33 W/m2
11:15 10.7 °C 9.6 °C 1001.9 hPa NW 14.5 km/h 22.5 km/h 93% 0.0 mm 72 W/m2
11:40 10.6 °C 9.1 °C 1001.9 hPa SW 3.2 km/h 17.7 km/h 91% 0.0 mm 139 W/m2
11:50 10.7 °C 9.1 °C 1001.9 hPa West 8.0 km/h 17.7 km/h 90% 0.0 mm 142 W/m2
11:55 10.7 °C 9.1 °C 1001.9 hPa West 8.0 km/h 17.7 km/h 90% 0.0 mm 128 W/m2
12:05 10.7 °C 8.8 °C 1001.9 hPa WNW 3.2 km/h 20.9 km/h 88% 0.0 mm 193 W/m2
12:10 10.8 °C 8.8 °C 1001.9 hPa WNW 4.8 km/h 20.9 km/h 87% 0.0 mm 178 W/m2
12:20 11.0 °C 8.9 °C 1001.9 hPa WNW 8.0 km/h 16.1 km/h 87% 0.0 mm 188 W/m2
12:25 11.1 °C 9.1 °C 1001.9 hPa West 8.0 km/h 16.1 km/h 88% 0.0 mm 185 W/m2
12:35 11.3 °C 9.4 °C 1001.9 hPa West 12.9 km/h 16.1 km/h 88% 0.0 mm 172 W/m2
12:55 11.1 °C 9.0 °C 1001.9 hPa WSW 6.4 km/h 16.1 km/h 87% 0.0 mm 195 W/m2
13:00 11.1 °C 9.0 °C 1001.9 hPa West 4.8 km/h 14.5 km/h 87% 0.0 mm 160 W/m2
13:10 10.9 °C 8.7 °C 1001.6 hPa NW 4.8 km/h 16.1 km/h 86% 0.0 mm 130 W/m2
13:20 10.9 °C 8.7 °C 1001.9 hPa West 8.0 km/h 17.7 km/h 86% 0.0 mm 93 W/m2
13:40 10.9 °C 8.6 °C 1001.9 hPa West 1.6 km/h 16.1 km/h 86% 0.0 mm 179 W/m2
13:45 10.9 °C 8.7 °C 1001.9 hPa WSW 4.8 km/h 19.3 km/h 86% 0.0 mm 167 W/m2
13:55 11.1 °C 8.6 °C 1001.6 hPa WNW 4.8 km/h 12.9 km/h 85% 0.0 mm 158 W/m2
14:00 11.0 °C 8.4 °C 1001.6 hPa WSW 6.4 km/h 16.1 km/h 84% 0.0 mm 165 W/m2
14:10 10.8 °C 8.1 °C 1001.9 hPa SSW 8.0 km/h 17.7 km/h 83% 0.0 mm 128 W/m2
14:20 10.8 °C 8.2 °C 1001.9 hPa WSW 12.9 km/h 17.7 km/h 84% 0.0 mm 135 W/m2
14:25 10.7 °C 8.0 °C 1001.9 hPa West 6.4 km/h 19.3 km/h 83% 0.0 mm 135 W/m2
14:35 10.8 °C 8.2 °C 1001.6 hPa WSW 8.0 km/h 16.1 km/h 84% 0.0 mm 171 W/m2
14:45 11.0 °C 8.4 °C 1001.6 hPa West 9.7 km/h 16.1 km/h 84% 0.0 mm 141 W/m2
14:50 11.0 °C 8.4 °C 1001.2 hPa NW 9.7 km/h 16.1 km/h 84% 0.0 mm 188 W/m2
14:55 11.1 °C 8.5 °C 1001.2 hPa WSW 12.9 km/h 16.1 km/h 84% 0.0 mm 274 W/m2
15:05 11.1 °C 8.5 °C 1001.2 hPa West 4.8 km/h 16.1 km/h 84% 0.0 mm 127 W/m2
15:10 10.9 °C 8.5 °C 1001.2 hPa WSW 8.0 km/h 14.5 km/h 85% 0.0 mm 76 W/m2
15:15 10.7 °C 8.5 °C 1001.2 hPa West 9.7 km/h 14.5 km/h 86% 0.0 mm 63 W/m2
15:20 10.6 °C 8.5 °C 1001.2 hPa SSW 6.4 km/h 12.9 km/h 87% 0.0 mm 88 W/m2
15:30 10.6 °C 8.7 °C 1001.2 hPa SW 8.0 km/h 12.9 km/h 88% 0.0 mm 88 W/m2
15:45 10.7 °C 8.6 °C 1001.2 hPa SW 11.3 km/h 12.9 km/h 87% 0.0 mm 183 W/m2
16:05 10.5 °C 8.3 °C 1000.9 hPa WSW 8.0 km/h 14.5 km/h 86% 0.0 mm 74 W/m2
16:15 10.4 °C 8.4 °C 1000.9 hPa WSW 3.2 km/h 17.7 km/h 87% 0.0 mm 83 W/m2
16:25 10.3 °C 8.0 °C 1000.9 hPa WSW 4.8 km/h 12.9 km/h 86% 0.0 mm 39 W/m2
16:30 10.1 °C 8.0 °C 1000.9 hPa WSW 8.0 km/h 14.5 km/h 87% 0.0 mm 51 W/m2
16:50 10.2 °C 8.2 °C 1000.9 hPa SSW 4.8 km/h 14.5 km/h 87% 0.0 mm 40 W/m2
16:55 10.2 °C 8.1 °C 1000.6 hPa SW 6.4 km/h 11.3 km/h 87% 0.0 mm 28 W/m2
17:00 10.1 °C 8.2 °C 1000.6 hPa WSW 3.2 km/h 11.3 km/h 88% 0.0 mm 21 W/m2
17:05 10.1 °C 8.2 °C 1000.6 hPa Calm   11.3 km/h 88% 0.0 mm 12 W/m2
17:10 10.0 °C 8.1 °C 1000.6 hPa Calm   12.9 km/h 88% 0.0 mm 12 W/m2
17:15 9.9 °C 8.0 °C 1000.6 hPa SSW 1.6 km/h 12.9 km/h 88% 0.0 mm 12 W/m2
17:25 9.8 °C 7.9 °C 1000.6 hPa SW 4.8 km/h 11.3 km/h 88% 0.0 mm 5 W/m2
17:30 9.8 °C 7.9 °C 1000.9 hPa SW 4.8 km/h 11.3 km/h 88% 0.0 mm 0 W/m2
17:35 9.7 °C 7.8 °C 1000.6 hPa SSW 3.2 km/h 14.5 km/h 88% 0.0 mm 0 W/m2
18:00 9.7 °C 7.8 °C 1000.6 hPa SW 8.0 km/h 16.1 km/h 88% 0.0 mm 0 W/m2
18:15 9.0 °C 7.3 °C 1001.2 hPa West 12.9 km/h 32.2 km/h 89% 0.8 mm 0 W/m2
18:20 8.8 °C 7.1 °C 1000.9 hPa West 9.7 km/h 22.5 km/h 89% 0.8 mm 0 W/m2
18:30 8.5 °C 7.0 °C 1000.9 hPa SW 4.8 km/h 16.1 km/h 90% 0.8 mm 0 W/m2
18:35 8.4 °C 6.9 °C 1000.9 hPa SW 4.8 km/h 16.1 km/h 90% 0.8 mm 0 W/m2
18:40 8.4 °C 6.8 °C 1000.9 hPa SSW 3.2 km/h 12.9 km/h 90% 0.8 mm 0 W/m2
18:45 8.3 °C 6.9 °C 1000.9 hPa SW 4.8 km/h 9.7 km/h 91% 0.8 mm 0 W/m2
18:50 8.3 °C 6.9 °C 1000.9 hPa SSW 3.2 km/h 11.3 km/h 91% 1.0 mm 0 W/m2
18:55 8.3 °C 6.9 °C 1000.6 hPa SW 4.8 km/h 11.3 km/h 91% 1.0 mm 0 W/m2
19:05 8.3 °C 7.1 °C 1000.6 hPa SW 8.0 km/h 16.1 km/h 92% 0.5 mm 0 W/m2
19:10 8.4 °C 7.2 °C 1000.6 hPa SW 4.8 km/h 19.3 km/h 92% 0.5 mm 0 W/m2
19:25 8.8 °C 7.7 °C 1000.6 hPa West 9.7 km/h 25.7 km/h 93% 0.3 mm 0 W/m2
19:30 8.8 °C 7.7 °C 1000.9 hPa SW 9.7 km/h 24.1 km/h 93% 0.3 mm 0 W/m2
19:40 8.7 °C 7.5 °C 1000.6 hPa West 9.7 km/h 25.7 km/h 92% 0.3 mm 0 W/m2
19:45 8.7 °C 7.5 °C 1000.9 hPa WNW 16.1 km/h 25.7 km/h 92% 0.3 mm 0 W/m2
19:55 8.7 °C 7.5 °C 1000.6 hPa WSW 6.4 km/h 20.9 km/h 92% 0.0 mm 0 W/m2
20:05 8.8 °C 7.5 °C 1000.6 hPa West 3.2 km/h 22.5 km/h 92% 0.0 mm 0 W/m2
20:10 8.8 °C 7.4 °C 1000.9 hPa West 9.7 km/h 25.7 km/h 91% 0.0 mm 0 W/m2
20:15 8.8 °C 7.4 °C 1000.9 hPa WNW 11.3 km/h 25.7 km/h 91% 0.0 mm 0 W/m2
20:40 8.6 °C 6.8 °C 1000.9 hPa WNW 8.0 km/h 22.5 km/h 89% 0.0 mm 0 W/m2
20:55 8.6 °C 6.9 °C 1000.9 hPa West 8.0 km/h 17.7 km/h 89% 0.0 mm 0 W/m2
21:05 8.7 °C 7.0 °C 1000.9 hPa WSW 16.1 km/h 22.5 km/h 89% 0.0 mm 0 W/m2
21:10 8.7 °C 7.0 °C 1000.9 hPa West 8.0 km/h 22.5 km/h 89% 0.0 mm 0 W/m2
21:15 8.7 °C 7.0 °C 1000.9 hPa WSW 4.8 km/h 22.5 km/h 89% 0.0 mm 0 W/m2
21:20 8.7 °C 6.8 °C 1000.9 hPa West 12.9 km/h 24.1 km/h 88% 0.0 mm 0 W/m2
21:30 8.7 °C 6.8 °C 1000.9 hPa West 1.6 km/h 17.7 km/h 88% 0.0 mm 0 W/m2
21:35 8.7 °C 6.8 °C 1000.9 hPa WSW 11.3 km/h 19.3 km/h 88% 0.0 mm 0 W/m2
21:40 8.8 °C 6.9 °C 1000.9 hPa WSW 8.0 km/h 19.3 km/h 88% 0.0 mm 0 W/m2
21:45 8.8 °C 6.9 °C 1000.9 hPa SW 6.4 km/h 17.7 km/h 88% 0.0 mm 0 W/m2
21:50 8.8 °C 7.0 °C 1000.9 hPa SW 6.4 km/h 17.7 km/h 88% 0.0 mm 0 W/m2
21:55 8.8 °C 7.0 °C 1001.2 hPa SW 6.4 km/h 17.7 km/h 88% 0.0 mm 0 W/m2
22:00 8.8 °C 6.9 °C 1000.9 hPa West 14.5 km/h 17.7 km/h 88% 0.0 mm 0 W/m2
22:05 8.8 °C 6.9 °C 1001.2 hPa West 8.0 km/h 19.3 km/h 88% 0.0 mm 0 W/m2
22:10 8.8 °C 6.9 °C 1001.2 hPa West 17.7 km/h 19.3 km/h 88% 0.0 mm 0 W/m2
22:20 8.8 °C 6.6 °C 1001.2 hPa West 6.4 km/h 27.4 km/h 86% 0.0 mm 0 W/m2
22:35 9.0 °C 6.6 °C 1001.2 hPa West 4.8 km/h 19.3 km/h 85% 0.0 mm 0 W/m2
22:40 9.0 °C 6.6 °C 1001.2 hPa West 6.4 km/h 19.3 km/h 85% 0.0 mm 0 W/m2
22:50 9.1 °C 6.8 °C 1001.2 hPa WNW 9.7 km/h 16.1 km/h 86% 0.0 mm 0 W/m2
23:10 9.1 °C 7.0 °C 1001.6 hPa West 6.4 km/h 12.9 km/h 87% 0.0 mm 0 W/m2
23:15 9.0 °C 7.0 °C 1001.6 hPa WSW 3.2 km/h 11.3 km/h 87% 0.0 mm 0 W/m2
23:30 8.8 °C 6.7 °C 1001.6 hPa NW 1.6 km/h 9.7 km/h 87% 0.0 mm 0 W/m2
23:35 8.6 °C 6.6 °C 1001.6 hPa WSW 1.6 km/h 9.7 km/h 87% 0.0 mm 0 W/m2
23:45 8.4 °C 6.4 °C 1001.6 hPa SW 6.4 km/h 12.9 km/h 87% 0.0 mm 0 W/m2
23:50 8.4 °C 6.5 °C 1001.6 hPa WSW 8.0 km/h 12.9 km/h 88% 0.0 mm 0 W/m2